createdAt,value
2022-10-04T00:00:55.203Z,0.00
2022-10-04T00:01:55.250Z,0.00
2022-10-04T00:02:55.288Z,0.00
2022-10-04T00:03:55.193Z,0.00
2022-10-04T00:04:55.195Z,0.00
2022-10-04T00:05:55.207Z,0.00
2022-10-04T00:06:55.188Z,0.00
2022-10-04T00:07:55.163Z,0.00
2022-10-04T00:08:55.166Z,0.00
2022-10-04T00:09:55.136Z,0.00
2022-10-04T00:10:55.126Z,0.00
2022-10-04T00:11:55.113Z,0.00
2022-10-04T00:12:55.120Z,0.00
2022-10-04T00:13:55.088Z,0.00
2022-10-04T00:14:55.087Z,0.00
2022-10-04T00:15:55.085Z,0.00
2022-10-04T00:16:55.048Z,0.00
2022-10-04T00:17:55.078Z,0.00
2022-10-04T00:18:55.004Z,0.00
2022-10-04T00:19:55.006Z,0.00
2022-10-04T00:20:54.995Z,0.00
2022-10-04T00:21:54.982Z,0.00
2022-10-04T00:22:54.989Z,0.00
2022-10-04T00:23:55.013Z,0.00
2022-10-04T00:24:54.964Z,0.00
2022-10-04T00:25:54.923Z,0.00
2022-10-04T00:26:54.914Z,0.00
2022-10-04T00:27:54.952Z,0.00
2022-10-04T00:28:54.921Z,0.00
2022-10-04T00:29:54.880Z,0.00
2022-10-04T00:30:54.906Z,0.00
2022-10-04T00:31:54.933Z,0.00
2022-10-04T00:32:54.844Z,0.00
2022-10-04T00:33:54.885Z,0.00
2022-10-04T00:34:54.833Z,0.00
2022-10-04T00:35:54.804Z,0.00
2022-10-04T00:36:54.825Z,0.00
2022-10-04T00:37:54.804Z,0.00
2022-10-04T00:38:54.800Z,0.00
2022-10-04T00:39:54.766Z,0.00
2022-10-04T00:40:54.757Z,0.00
2022-10-04T00:41:54.756Z,0.00
2022-10-04T00:42:54.745Z,0.00
2022-10-04T00:43:54.746Z,0.00
2022-10-04T00:44:54.725Z,0.00
2022-10-04T00:45:54.735Z,0.00
2022-10-04T00:46:54.676Z,0.00
2022-10-04T00:47:54.685Z,0.00
2022-10-04T00:48:54.667Z,0.00
2022-10-04T00:49:54.696Z,0.00
2022-10-04T00:50:54.642Z,0.00
2022-10-04T00:51:54.627Z,0.00
2022-10-04T00:52:54.614Z,0.00
2022-10-04T00:53:54.615Z,0.00
2022-10-04T00:54:54.626Z,0.00
2022-10-04T00:55:54.591Z,0.00
2022-10-04T00:56:54.607Z,0.00
2022-10-04T00:57:54.572Z,0.00
2022-10-04T00:58:54.546Z,0.00
2022-10-04T00:59:54.556Z,0.00
2022-10-04T01:00:54.612Z,0.00
2022-10-04T01:01:54.543Z,0.00
2022-10-04T01:02:54.505Z,0.00
2022-10-04T01:03:54.497Z,0.00
2022-10-04T01:04:54.487Z,0.00
2022-10-04T01:05:54.508Z,0.00
2022-10-04T01:06:54.460Z,0.00
2022-10-04T01:07:54.446Z,0.00
2022-10-04T01:08:54.446Z,0.00
2022-10-04T01:09:54.427Z,0.00
2022-10-04T01:10:54.430Z,0.00
2022-10-04T01:11:54.436Z,0.00
2022-10-04T01:12:54.412Z,0.00
2022-10-04T01:13:54.378Z,0.00
2022-10-04T01:14:54.370Z,0.00
2022-10-04T01:15:54.423Z,0.00
2022-10-04T01:16:54.345Z,0.00
2022-10-04T01:17:54.359Z,0.00
2022-10-04T01:18:54.342Z,0.00
2022-10-04T01:19:54.330Z,0.00
2022-10-04T01:20:54.287Z,0.00
2022-10-04T01:21:54.312Z,0.00
2022-10-04T01:22:54.286Z,0.00
2022-10-04T01:23:54.276Z,0.00
2022-10-04T01:24:54.266Z,0.00
2022-10-04T01:25:54.246Z,0.00
2022-10-04T01:26:54.221Z,0.00
2022-10-04T01:27:54.266Z,0.00
2022-10-04T01:28:54.208Z,0.00
2022-10-04T01:29:54.214Z,0.00
2022-10-04T01:30:54.185Z,0.00
2022-10-04T01:31:54.279Z,0.00
2022-10-04T01:32:54.181Z,0.00
2022-10-04T01:33:54.153Z,0.00
2022-10-04T01:34:54.137Z,0.00
2022-10-04T01:35:54.149Z,0.00
2022-10-04T01:36:54.119Z,0.00
2022-10-04T01:37:54.166Z,0.00
2022-10-04T01:38:54.107Z,0.00
2022-10-04T01:39:54.104Z,0.00
2022-10-04T01:40:54.095Z,0.00
2022-10-04T01:41:54.094Z,0.00
2022-10-04T01:42:54.090Z,0.00
2022-10-04T01:43:54.049Z,0.00
2022-10-04T01:44:54.039Z,0.00
2022-10-04T01:45:54.229Z,0.00
2022-10-04T01:46:54.091Z,0.00
2022-10-04T01:47:54.010Z,0.00
2022-10-04T01:48:54.002Z,0.00
2022-10-04T01:49:53.971Z,0.00
2022-10-04T01:50:53.965Z,0.00
2022-10-04T01:51:53.970Z,0.00
2022-10-04T01:52:53.954Z,0.00
2022-10-04T01:53:53.966Z,0.00
2022-10-04T01:54:53.921Z,0.00
2022-10-04T01:55:53.909Z,0.00
2022-10-04T01:56:53.890Z,0.00
2022-10-04T01:57:53.897Z,0.00
2022-10-04T01:58:53.901Z,0.00
2022-10-04T01:59:53.874Z,0.00
2022-10-04T02:00:53.920Z,0.00
2022-10-04T02:01:53.860Z,0.00
2022-10-04T02:02:53.840Z,0.00
2022-10-04T02:03:53.850Z,0.00
2022-10-04T02:04:53.873Z,0.00
2022-10-04T02:05:53.793Z,0.00
2022-10-04T02:06:53.783Z,0.00
2022-10-04T02:07:53.793Z,0.00
2022-10-04T02:08:53.782Z,0.00
2022-10-04T02:09:53.782Z,0.00
2022-10-04T02:10:53.735Z,0.00
2022-10-04T02:11:53.744Z,0.00
2022-10-04T02:12:53.722Z,0.00
2022-10-04T02:13:53.711Z,0.00
2022-10-04T02:14:53.735Z,0.00
2022-10-04T02:15:53.752Z,0.00
2022-10-04T02:16:53.692Z,0.00
2022-10-04T02:17:53.662Z,0.00
2022-10-04T02:18:53.664Z,0.00
2022-10-04T02:19:53.660Z,0.00
2022-10-04T02:20:53.625Z,0.00
2022-10-04T02:21:53.643Z,0.00
2022-10-04T02:22:53.603Z,0.00
2022-10-04T02:23:53.586Z,0.00
2022-10-04T02:24:53.582Z,0.00
2022-10-04T02:25:53.596Z,0.00
2022-10-04T02:26:53.570Z,0.00
2022-10-04T02:27:53.636Z,0.00
2022-10-04T02:28:53.549Z,0.00
2022-10-04T02:29:53.530Z,0.00
2022-10-04T02:30:53.565Z,0.00
2022-10-04T02:31:53.511Z,0.00
2022-10-04T02:32:53.489Z,0.00
2022-10-04T02:33:53.491Z,0.00
2022-10-04T02:34:53.483Z,0.00
2022-10-04T02:35:53.453Z,0.00
2022-10-04T02:36:53.480Z,0.00
2022-10-04T02:37:53.439Z,0.00
2022-10-04T02:38:53.421Z,0.00
2022-10-04T02:39:53.407Z,0.00
2022-10-04T02:40:53.393Z,0.00
2022-10-04T02:41:53.412Z,0.00
2022-10-04T02:42:53.386Z,0.00
2022-10-04T02:43:53.379Z,0.00
2022-10-04T02:44:53.344Z,0.00
2022-10-04T02:45:53.342Z,0.00
2022-10-04T02:46:53.430Z,0.00
2022-10-04T02:47:53.343Z,0.00
2022-10-04T02:48:53.301Z,0.00
2022-10-04T02:49:53.296Z,0.00
2022-10-04T02:50:53.294Z,0.00
2022-10-04T02:51:53.325Z,0.00
2022-10-04T02:52:53.254Z,0.00
2022-10-04T02:53:53.258Z,0.00
2022-10-04T02:54:53.248Z,0.00
2022-10-04T02:55:53.252Z,0.00
2022-10-04T02:56:53.233Z,0.00
2022-10-04T02:57:53.232Z,0.00
2022-10-04T02:58:53.192Z,0.00
2022-10-04T02:59:53.210Z,0.00
2022-10-04T03:00:53.219Z,0.00
2022-10-04T03:01:53.239Z,0.00
2022-10-04T03:02:53.164Z,0.00
2022-10-04T03:03:53.169Z,0.00
2022-10-04T03:04:53.133Z,0.00
2022-10-04T03:05:53.114Z,0.00
2022-10-04T03:06:53.101Z,0.00
2022-10-04T03:07:53.126Z,0.00
2022-10-04T03:08:53.086Z,0.00
2022-10-04T03:09:53.076Z,0.00
2022-10-04T03:10:53.075Z,0.00
2022-10-04T03:11:53.059Z,0.00
2022-10-04T03:12:53.048Z,0.00
2022-10-04T03:13:53.045Z,0.00
2022-10-04T03:14:53.007Z,0.00
2022-10-04T03:15:53.124Z,0.00
2022-10-04T03:16:53.019Z,0.00
2022-10-04T03:17:53.023Z,0.00
2022-10-04T03:18:52.975Z,0.00
2022-10-04T03:19:52.957Z,0.00
2022-10-04T03:20:52.934Z,0.00
2022-10-04T03:21:52.948Z,0.00
2022-10-04T03:22:52.953Z,0.00
2022-10-04T03:23:52.929Z,0.00
2022-10-04T03:24:52.906Z,0.00
2022-10-04T03:25:52.887Z,0.00
2022-10-04T03:26:52.876Z,0.00
2022-10-04T03:27:53.000Z,0.00
2022-10-04T03:28:52.867Z,0.00
2022-10-04T03:29:58.271Z,0.00
2022-10-04T03:30:53.915Z,0.00
2022-10-04T03:31:52.867Z,0.00
2022-10-04T03:32:52.790Z,0.00
2022-10-04T03:33:52.859Z,0.00
2022-10-04T03:34:52.795Z,0.00
2022-10-04T03:35:52.810Z,0.00
2022-10-04T03:36:52.761Z,0.00
2022-10-04T03:37:52.759Z,0.00
2022-10-04T03:38:52.758Z,0.00
2022-10-04T03:39:52.745Z,0.00
2022-10-04T03:40:52.719Z,0.00
2022-10-04T03:41:52.706Z,0.00
2022-10-04T03:42:52.706Z,0.00
2022-10-04T03:43:52.705Z,0.00
2022-10-04T03:44:52.693Z,0.00
2022-10-04T03:45:52.706Z,0.00
2022-10-04T03:46:52.654Z,0.00
2022-10-04T03:47:52.638Z,0.00
2022-10-04T03:48:52.667Z,0.00
2022-10-04T03:49:52.644Z,0.00
2022-10-04T03:50:52.637Z,0.00
2022-10-04T03:51:52.640Z,0.00
2022-10-04T03:52:52.586Z,0.00
2022-10-04T03:53:52.577Z,0.00
2022-10-04T03:54:52.586Z,0.00
2022-10-04T03:55:52.548Z,0.00
2022-10-04T03:56:52.528Z,0.00
2022-10-04T03:57:52.528Z,0.00
2022-10-04T03:58:52.508Z,0.00
2022-10-04T03:59:52.546Z,0.00
2022-10-04T04:00:52.528Z,0.00
2022-10-04T04:01:52.514Z,0.00
2022-10-04T04:02:52.482Z,0.00
2022-10-04T04:03:52.453Z,0.00
2022-10-04T04:04:52.467Z,0.00
2022-10-04T04:05:52.439Z,0.00
2022-10-04T04:06:52.447Z,0.00
2022-10-04T04:07:52.411Z,0.00
2022-10-04T04:08:52.399Z,0.00
2022-10-04T04:09:52.397Z,0.00
2022-10-04T04:10:52.396Z,0.00
2022-10-04T04:11:52.361Z,0.00
2022-10-04T04:12:52.360Z,0.00
2022-10-04T04:13:52.360Z,0.00
2022-10-04T04:14:52.339Z,0.00
2022-10-04T04:15:52.423Z,0.00
2022-10-04T04:16:52.309Z,0.00
2022-10-04T04:17:52.289Z,0.00
2022-10-04T04:18:52.290Z,0.00
2022-10-04T04:19:52.257Z,0.00
2022-10-04T04:20:52.292Z,0.00
2022-10-04T04:21:52.269Z,0.00
2022-10-04T04:22:52.231Z,0.00
2022-10-04T04:23:52.229Z,0.00
2022-10-04T04:24:52.213Z,0.00
2022-10-04T04:25:52.249Z,0.00
2022-10-04T04:26:52.191Z,0.00
2022-10-04T04:27:52.244Z,0.00
2022-10-04T04:28:52.170Z,0.00
2022-10-04T04:29:52.156Z,0.00
2022-10-04T04:30:52.139Z,0.00
2022-10-04T04:31:52.206Z,0.00
2022-10-04T04:32:52.126Z,0.00
2022-10-04T04:33:52.098Z,0.00
2022-10-04T04:34:52.088Z,0.00
2022-10-04T04:35:52.102Z,0.00
2022-10-04T04:36:52.120Z,0.00
2022-10-04T04:37:52.071Z,0.00
2022-10-04T04:38:52.061Z,0.00
2022-10-04T04:39:52.042Z,0.00
2022-10-04T04:40:52.041Z,0.00
2022-10-04T04:41:52.310Z,0.00
2022-10-04T04:42:52.021Z,0.00
2022-10-04T04:43:51.987Z,0.00
2022-10-04T04:44:51.983Z,0.00
2022-10-04T04:46:08.589Z,0.00
2022-10-04T04:46:53.046Z,0.00
2022-10-04T04:47:51.941Z,0.00
2022-10-04T04:48:51.929Z,0.00
2022-10-04T04:49:51.917Z,0.00
2022-10-04T04:50:51.900Z,0.00
2022-10-04T04:51:51.894Z,0.00
2022-10-04T04:52:51.898Z,0.00
2022-10-04T04:53:51.869Z,0.00
2022-10-04T04:54:51.873Z,0.00
2022-10-04T04:56:10.626Z,0.00
2022-10-04T04:56:52.845Z,0.00
2022-10-04T04:57:51.843Z,0.00
2022-10-04T04:58:51.806Z,0.00
2022-10-04T04:59:51.809Z,0.00
2022-10-04T05:00:51.845Z,0.00
2022-10-04T05:01:51.853Z,0.00
2022-10-04T05:02:54.943Z,0.00
2022-10-04T05:03:52.754Z,0.00
2022-10-04T05:04:51.781Z,0.00
2022-10-04T05:05:51.751Z,0.00
2022-10-04T05:06:51.742Z,0.00
2022-10-04T05:07:51.738Z,0.00
2022-10-04T05:08:51.702Z,0.00
2022-10-04T05:09:51.692Z,0.00
2022-10-04T05:10:51.672Z,0.00
2022-10-04T05:11:51.664Z,0.00
2022-10-04T05:12:51.653Z,0.00
2022-10-04T05:13:51.652Z,0.00
2022-10-04T05:14:51.652Z,0.00
2022-10-04T05:15:51.613Z,0.00
2022-10-04T05:16:51.651Z,0.00
2022-10-04T05:17:51.602Z,0.00
2022-10-04T05:18:51.602Z,0.00
2022-10-04T05:19:51.571Z,0.00
2022-10-04T05:20:51.564Z,0.00
2022-10-04T05:21:51.557Z,0.00
2022-10-04T05:22:51.534Z,4.00
2022-10-04T05:23:51.540Z,4.00
2022-10-04T05:24:51.516Z,0.00
2022-10-04T05:25:51.517Z,0.00
2022-10-04T05:26:51.536Z,4.00
2022-10-04T05:27:51.565Z,4.00
2022-10-04T05:28:51.478Z,4.00
2022-10-04T05:29:51.454Z,4.00
2022-10-04T05:30:51.469Z,8.00
2022-10-04T05:31:51.563Z,4.00
2022-10-04T05:32:51.426Z,4.00
2022-10-04T05:33:51.436Z,8.00
2022-10-04T05:34:51.424Z,8.00
2022-10-04T05:35:51.388Z,8.00
2022-10-04T05:36:51.413Z,8.00
2022-10-04T05:37:51.371Z,8.00
2022-10-04T05:38:51.364Z,8.00
2022-10-04T05:39:51.363Z,12.00
2022-10-04T05:40:51.335Z,8.00
2022-10-04T05:41:51.315Z,8.00
2022-10-04T05:42:51.315Z,12.00
2022-10-04T05:43:51.313Z,12.00
2022-10-04T05:44:51.296Z,12.00
2022-10-04T05:45:51.320Z,16.00
2022-10-04T05:46:51.306Z,20.00
2022-10-04T05:47:51.247Z,24.00
2022-10-04T05:48:51.254Z,24.00
2022-10-04T05:49:51.234Z,36.00
2022-10-04T05:50:51.223Z,32.00
2022-10-04T05:51:51.209Z,36.00
2022-10-04T05:52:51.195Z,32.00
2022-10-04T05:53:51.205Z,40.00
2022-10-04T05:54:51.205Z,36.00
2022-10-04T05:55:51.167Z,40.00
2022-10-04T05:56:51.197Z,44.00
2022-10-04T05:57:51.154Z,52.00
2022-10-04T05:58:51.166Z,52.00
2022-10-04T05:59:51.138Z,60.00
2022-10-04T06:00:51.174Z,56.00
2022-10-04T06:01:51.147Z,52.00
2022-10-04T06:02:51.223Z,60.00
2022-10-04T06:03:51.073Z,48.00
2022-10-04T06:04:51.071Z,48.00
2022-10-04T06:05:51.074Z,52.00
2022-10-04T06:06:51.080Z,56.00
2022-10-04T06:07:51.041Z,60.00
2022-10-04T06:08:51.021Z,60.00
2022-10-04T06:09:51.014Z,64.00
2022-10-04T06:10:51.046Z,72.00
2022-10-04T06:11:50.976Z,68.00
2022-10-04T06:12:50.978Z,80.00
2022-10-04T06:13:50.965Z,84.00
2022-10-04T06:14:50.960Z,88.00
2022-10-04T06:15:50.936Z,100.00
2022-10-04T06:16:51.009Z,92.00
2022-10-04T06:17:50.918Z,104.00
2022-10-04T06:18:50.907Z,108.00
2022-10-04T06:19:50.897Z,156.00
2022-10-04T06:20:50.886Z,180.00
2022-10-04T06:21:50.907Z,172.00
2022-10-04T06:22:50.880Z,224.00
2022-10-04T06:23:50.875Z,224.00
2022-10-04T06:24:50.838Z,272.00
2022-10-04T06:25:50.833Z,200.00
2022-10-04T06:26:50.879Z,216.00
2022-10-04T06:27:50.832Z,200.00
2022-10-04T06:28:50.809Z,204.00
2022-10-04T06:29:50.778Z,200.00
2022-10-04T06:30:50.805Z,188.00
2022-10-04T06:31:53.384Z,208.00
2022-10-04T06:32:50.769Z,208.00
2022-10-04T06:33:50.739Z,192.00
2022-10-04T06:34:50.718Z,196.00
2022-10-04T06:35:50.707Z,196.00
2022-10-04T06:36:50.725Z,172.00
2022-10-04T06:37:50.696Z,212.00
2022-10-04T06:38:50.695Z,188.00
2022-10-04T06:39:50.672Z,256.00
2022-10-04T06:40:50.648Z,280.00
2022-10-04T06:41:50.668Z,300.00
2022-10-04T06:42:50.627Z,304.00
2022-10-04T06:43:50.667Z,280.00
2022-10-04T06:44:50.613Z,276.00
2022-10-04T06:45:50.651Z,252.00
2022-10-04T06:46:50.599Z,320.00
2022-10-04T06:47:50.599Z,336.00
2022-10-04T06:48:50.555Z,360.00
2022-10-04T06:49:50.556Z,352.00
2022-10-04T06:50:50.544Z,396.00
2022-10-04T06:51:50.513Z,560.00
2022-10-04T06:52:50.516Z,464.00
2022-10-04T06:53:50.532Z,364.00
2022-10-04T06:54:50.496Z,388.00
2022-10-04T06:55:50.478Z,600.00
2022-10-04T06:56:50.482Z,364.00
2022-10-04T06:57:50.448Z,388.00
2022-10-04T06:58:50.478Z,476.00
2022-10-04T06:59:50.419Z,376.00
2022-10-04T07:00:50.476Z,336.00
2022-10-04T07:01:50.560Z,320.00
2022-10-04T07:02:50.422Z,408.00
2022-10-04T07:03:51.776Z,384.00
2022-10-04T07:05:07.457Z,356.00
2022-10-04T07:05:51.364Z,376.00
2022-10-04T07:06:50.362Z,404.00
2022-10-04T07:07:50.344Z,356.00
2022-10-04T07:08:50.336Z,384.00
2022-10-04T07:09:50.311Z,404.00
2022-10-04T07:10:50.330Z,504.00
2022-10-04T07:11:50.310Z,568.00
2022-10-04T07:12:50.291Z,668.00
2022-10-04T07:13:50.259Z,416.00
2022-10-04T07:14:50.270Z,412.00
2022-10-04T07:15:50.331Z,768.00
2022-10-04T07:16:50.262Z,696.00
2022-10-04T07:17:50.223Z,796.00
2022-10-04T07:18:50.308Z,972.00
2022-10-04T07:19:50.200Z,896.00
2022-10-04T07:20:50.218Z,728.00
2022-10-04T07:21:50.519Z,972.00
2022-10-04T07:22:50.176Z,992.00
2022-10-04T07:23:50.157Z,740.00
2022-10-04T07:24:50.165Z,784.00
2022-10-04T07:25:50.224Z,572.00
2022-10-04T07:26:50.192Z,752.00
2022-10-04T07:27:50.308Z,824.00
2022-10-04T07:28:50.116Z,824.00
2022-10-04T07:29:50.124Z,732.00
2022-10-04T07:30:50.186Z,648.00
2022-10-04T07:31:50.082Z,540.00
2022-10-04T07:32:50.057Z,620.00
2022-10-04T07:33:50.043Z,692.00
2022-10-04T07:34:50.043Z,824.00
2022-10-04T07:35:50.030Z,608.00
2022-10-04T07:36:50.044Z,744.00
2022-10-04T07:37:49.992Z,884.00
2022-10-04T07:38:50.014Z,876.00
2022-10-04T07:39:49.972Z,1400.00
2022-10-04T07:40:49.969Z,932.00
2022-10-04T07:41:49.973Z,1292.00
2022-10-04T07:42:49.944Z,1264.00
2022-10-04T07:43:49.932Z,1208.00
2022-10-04T07:44:49.949Z,1636.00
2022-10-04T07:45:50.012Z,1712.00
2022-10-04T07:46:49.932Z,1588.00
2022-10-04T07:47:49.937Z,1252.00
2022-10-04T07:48:49.913Z,1616.00
2022-10-04T07:49:49.858Z,1984.00
2022-10-04T07:50:49.874Z,2168.00
2022-10-04T07:51:49.936Z,1668.00
2022-10-04T07:52:49.863Z,1140.00
2022-10-04T07:53:49.826Z,1476.00
2022-10-04T07:54:49.864Z,1904.00
2022-10-04T07:55:49.838Z,1548.00
2022-10-04T07:56:49.826Z,2360.00
2022-10-04T07:57:49.793Z,2108.00
2022-10-04T07:58:49.777Z,2356.00
2022-10-04T07:59:49.754Z,2228.00
2022-10-04T08:00:49.795Z,2752.00
2022-10-04T08:01:49.854Z,1816.00
2022-10-04T08:02:49.882Z,1792.00
2022-10-04T08:03:49.743Z,1672.00
2022-10-04T08:04:49.715Z,2228.00
2022-10-04T08:05:49.722Z,2096.00
2022-10-04T08:06:49.703Z,2544.00
2022-10-04T08:07:49.702Z,3048.00
2022-10-04T08:08:49.663Z,2412.00
2022-10-04T08:09:49.649Z,3836.00
2022-10-04T08:10:52.128Z,3268.00
2022-10-04T08:11:49.642Z,3444.00
2022-10-04T08:12:49.626Z,3824.00
2022-10-04T08:13:49.607Z,2888.00
2022-10-04T08:14:49.611Z,3196.00
2022-10-04T08:15:49.651Z,2712.00
2022-10-04T08:16:49.615Z,2612.00
2022-10-04T08:17:49.581Z,2752.00
2022-10-04T08:18:49.550Z,2752.00
2022-10-04T08:19:49.535Z,2784.00
2022-10-04T08:20:49.544Z,2748.00
2022-10-04T08:21:49.526Z,2768.00
2022-10-04T08:22:49.526Z,2584.00
2022-10-04T08:23:49.514Z,2612.00
2022-10-04T08:24:53.363Z,2972.00
2022-10-04T08:25:49.475Z,3016.00
2022-10-04T08:26:49.487Z,3204.00
2022-10-04T08:27:49.474Z,3496.00
2022-10-04T08:28:49.520Z,3336.00
2022-10-04T08:29:49.422Z,3492.00
2022-10-04T08:30:49.425Z,3004.00
2022-10-04T08:31:49.417Z,2464.00
2022-10-04T08:32:49.392Z,2344.00
2022-10-04T08:33:49.401Z,2240.00
2022-10-04T08:34:49.362Z,2240.00
2022-10-04T08:35:49.356Z,2180.00
2022-10-04T08:36:49.383Z,2136.00
2022-10-04T08:37:49.332Z,2016.00
2022-10-04T08:38:49.332Z,2104.00
2022-10-04T08:39:49.306Z,2068.00
2022-10-04T08:40:49.302Z,1948.00
2022-10-04T08:41:49.267Z,1960.00
2022-10-04T08:42:49.275Z,1840.00
2022-10-04T08:43:49.286Z,1824.00
2022-10-04T08:44:49.256Z,1780.00
2022-10-04T08:45:49.229Z,1752.00
2022-10-04T08:46:49.292Z,1768.00
2022-10-04T08:47:49.226Z,1752.00
2022-10-04T08:48:49.217Z,1704.00
2022-10-04T08:49:49.203Z,1684.00
2022-10-04T08:50:49.177Z,1664.00
2022-10-04T08:51:49.171Z,1680.00
2022-10-04T08:52:49.168Z,1632.00
2022-10-04T08:53:49.150Z,1620.00
2022-10-04T08:54:49.156Z,1568.00
2022-10-04T08:55:49.134Z,1580.00
2022-10-04T08:56:49.147Z,1612.00
2022-10-04T08:57:49.084Z,1540.00
2022-10-04T08:58:49.119Z,1584.00
2022-10-04T08:59:49.139Z,1580.00
2022-10-04T09:00:49.088Z,1644.00
2022-10-04T09:01:49.116Z,1672.00
2022-10-04T09:02:49.153Z,1636.00
2022-10-04T09:03:49.068Z,1724.00
2022-10-04T09:04:49.029Z,1800.00
2022-10-04T09:05:49.017Z,1856.00
2022-10-04T09:06:49.013Z,1796.00
2022-10-04T09:07:49.010Z,1896.00
2022-10-04T09:08:48.978Z,1892.00
2022-10-04T09:09:48.995Z,1956.00
2022-10-04T09:10:48.948Z,2036.00
2022-10-04T09:11:48.942Z,1992.00
2022-10-04T09:12:48.928Z,1972.00
2022-10-04T09:13:48.927Z,1880.00
2022-10-04T09:14:48.938Z,2048.00
2022-10-04T09:15:48.974Z,2008.00
2022-10-04T09:16:48.925Z,1984.00
2022-10-04T09:17:48.876Z,1996.00
2022-10-04T09:18:48.851Z,2024.00
2022-10-04T09:19:48.844Z,2040.00
2022-10-04T09:20:48.855Z,1988.00
2022-10-04T09:21:48.821Z,1912.00
2022-10-04T09:22:48.819Z,1984.00
2022-10-04T09:23:48.815Z,1792.00
2022-10-04T09:24:48.801Z,1840.00
2022-10-04T09:25:48.816Z,1676.00
2022-10-04T09:26:48.789Z,1708.00
2022-10-04T09:27:55.960Z,1648.00
2022-10-04T09:28:49.736Z,1496.00
2022-10-04T09:29:48.757Z,1524.00
2022-10-04T09:30:48.778Z,1552.00
2022-10-04T09:31:48.722Z,1548.00
2022-10-04T09:32:48.705Z,1520.00
2022-10-04T09:33:48.682Z,1584.00
2022-10-04T09:34:48.687Z,1584.00
2022-10-04T09:35:48.665Z,1576.00
2022-10-04T09:36:48.700Z,1572.00
2022-10-04T09:37:48.641Z,1516.00
2022-10-04T09:38:48.645Z,1436.00
2022-10-04T09:39:48.633Z,1372.00
2022-10-04T09:40:48.603Z,1388.00
2022-10-04T09:41:48.601Z,1360.00
2022-10-04T09:42:48.592Z,1352.00
2022-10-04T09:43:48.581Z,1420.00
2022-10-04T09:44:48.558Z,1408.00
2022-10-04T09:45:48.575Z,1424.00
2022-10-04T09:46:52.104Z,1384.00
2022-10-04T09:47:49.587Z,1412.00
2022-10-04T09:48:48.543Z,1384.00
2022-10-04T09:49:48.520Z,1340.00
2022-10-04T09:50:48.492Z,1256.00
2022-10-04T09:51:48.511Z,1108.00
2022-10-04T09:52:48.514Z,1108.00
2022-10-04T09:53:48.470Z,1236.00
2022-10-04T09:54:48.454Z,1276.00
2022-10-04T09:55:48.452Z,1220.00
2022-10-04T09:56:48.443Z,1156.00
2022-10-04T09:57:48.432Z,1164.00
2022-10-04T09:58:48.444Z,1152.00
2022-10-04T09:59:48.393Z,1100.00
2022-10-04T10:00:48.373Z,1136.00
2022-10-04T10:01:48.386Z,1088.00
2022-10-04T10:02:48.433Z,1044.00
2022-10-04T10:03:48.376Z,1048.00
2022-10-04T10:04:48.361Z,1048.00
2022-10-04T10:05:48.343Z,1020.00
2022-10-04T10:06:48.326Z,1040.00
2022-10-04T10:07:48.324Z,1000.00
2022-10-04T10:08:48.314Z,996.00
2022-10-04T10:09:48.284Z,976.00
2022-10-04T10:10:48.265Z,924.00
2022-10-04T10:11:48.256Z,972.00
2022-10-04T10:12:48.244Z,980.00
2022-10-04T10:13:48.230Z,956.00
2022-10-04T10:14:48.245Z,936.00
2022-10-04T10:15:48.242Z,940.00
2022-10-04T10:16:48.217Z,908.00
2022-10-04T10:17:48.200Z,932.00
2022-10-04T10:18:48.177Z,924.00
2022-10-04T10:19:48.196Z,900.00
2022-10-04T10:20:48.157Z,904.00
2022-10-04T10:21:48.132Z,896.00
2022-10-04T10:22:48.124Z,888.00
2022-10-04T10:23:48.107Z,868.00
2022-10-04T10:24:48.149Z,868.00
2022-10-04T10:25:48.101Z,888.00
2022-10-04T10:26:48.114Z,872.00
2022-10-04T10:27:48.081Z,924.00
2022-10-04T10:28:48.048Z,956.00
2022-10-04T10:29:48.044Z,988.00
2022-10-04T10:30:48.121Z,992.00
2022-10-04T10:31:48.210Z,1040.00
2022-10-04T10:32:48.030Z,1100.00
2022-10-04T10:33:48.000Z,1148.00
2022-10-04T10:34:47.999Z,1216.00
2022-10-04T10:35:48.019Z,1240.00
2022-10-04T10:36:48.237Z,1268.00
2022-10-04T10:37:48.001Z,1280.00
2022-10-04T10:38:47.939Z,1292.00
2022-10-04T10:39:47.937Z,1308.00
2022-10-04T10:40:47.937Z,1324.00
2022-10-04T10:41:47.909Z,1296.00
2022-10-04T10:42:47.923Z,1304.00
2022-10-04T10:43:47.969Z,1324.00
2022-10-04T10:44:47.896Z,1256.00
2022-10-04T10:45:47.856Z,1256.00
2022-10-04T10:46:48.362Z,1200.00
2022-10-04T10:47:47.877Z,1132.00
2022-10-04T10:48:47.835Z,1128.00
2022-10-04T10:49:47.826Z,1120.00
2022-10-04T10:50:47.818Z,1128.00
2022-10-04T10:51:47.797Z,1096.00
2022-10-04T10:52:47.794Z,1156.00
2022-10-04T10:53:47.889Z,1212.00
2022-10-04T10:54:47.807Z,1168.00
2022-10-04T10:55:47.758Z,1156.00
2022-10-04T10:56:47.974Z,1164.00
2022-10-04T10:57:47.742Z,1172.00
2022-10-04T10:58:47.759Z,1212.00
2022-10-04T10:59:47.733Z,1216.00
2022-10-04T11:00:47.702Z,1268.00
2022-10-04T11:01:47.774Z,1288.00
2022-10-04T11:02:50.540Z,1260.00
2022-10-04T11:03:47.741Z,1256.00
2022-10-04T11:04:47.662Z,1248.00
2022-10-04T11:05:47.630Z,1260.00
2022-10-04T11:06:48.051Z,1288.00
2022-10-04T11:07:47.610Z,1244.00
2022-10-04T11:08:47.601Z,1220.00
2022-10-04T11:09:47.591Z,1200.00
2022-10-04T11:10:51.727Z,1132.00
2022-10-04T11:11:47.562Z,1136.00
2022-10-04T11:12:47.556Z,1064.00
2022-10-04T11:13:47.552Z,952.00
2022-10-04T11:14:47.544Z,892.00
2022-10-04T11:15:47.546Z,976.00
2022-10-04T11:16:48.018Z,968.00
2022-10-04T11:17:47.504Z,940.00
2022-10-04T11:18:47.495Z,928.00
2022-10-04T11:19:47.512Z,880.00
2022-10-04T11:20:47.469Z,856.00
2022-10-04T11:21:47.481Z,856.00
2022-10-04T11:22:47.446Z,852.00
2022-10-04T11:23:47.437Z,824.00
2022-10-04T11:24:47.424Z,808.00
2022-10-04T11:25:47.413Z,792.00
2022-10-04T11:26:47.747Z,800.00
2022-10-04T11:27:49.377Z,780.00
2022-10-04T11:28:47.415Z,768.00
2022-10-04T11:29:47.395Z,748.00
2022-10-04T11:30:47.366Z,740.00
2022-10-04T11:31:47.337Z,728.00
2022-10-04T11:32:47.380Z,720.00
2022-10-04T11:33:47.320Z,724.00
2022-10-04T11:34:47.285Z,700.00
2022-10-04T11:35:47.307Z,692.00
2022-10-04T11:36:47.793Z,680.00
2022-10-04T11:37:47.266Z,672.00
2022-10-04T11:38:47.273Z,648.00
2022-10-04T11:39:47.236Z,656.00
2022-10-04T11:40:47.217Z,656.00
2022-10-04T11:41:47.226Z,652.00
2022-10-04T11:42:47.237Z,640.00
2022-10-04T11:43:47.207Z,636.00
2022-10-04T11:44:47.203Z,632.00
2022-10-04T11:45:47.198Z,632.00
2022-10-04T11:46:47.742Z,632.00
2022-10-04T11:47:47.156Z,612.00
2022-10-04T11:48:47.142Z,624.00
2022-10-04T11:49:47.159Z,624.00
2022-10-04T11:50:47.129Z,604.00
2022-10-04T11:51:47.091Z,616.00
2022-10-04T11:52:47.107Z,612.00
2022-10-04T11:53:47.073Z,612.00
2022-10-04T11:54:47.264Z,612.00
2022-10-04T11:55:47.086Z,616.00
2022-10-04T11:56:47.600Z,612.00
2022-10-04T11:57:47.028Z,604.00
2022-10-04T11:58:47.018Z,612.00
2022-10-04T11:59:47.036Z,608.00
2022-10-04T12:00:46.998Z,608.00
2022-10-04T12:01:46.994Z,608.00
2022-10-04T12:02:47.001Z,616.00
2022-10-04T12:03:47.057Z,616.00
2022-10-04T12:04:47.053Z,612.00
2022-10-04T12:05:46.960Z,624.00
2022-10-04T12:06:47.475Z,612.00
2022-10-04T12:07:46.909Z,632.00
2022-10-04T12:08:46.913Z,608.00
2022-10-04T12:09:46.890Z,608.00
2022-10-04T12:10:46.901Z,600.00
2022-10-04T12:11:46.866Z,596.00
2022-10-04T12:12:46.849Z,588.00
2022-10-04T12:13:46.882Z,580.00
2022-10-04T12:14:46.838Z,580.00
2022-10-04T12:15:46.872Z,612.00
2022-10-04T12:16:47.103Z,608.00
2022-10-04T12:17:46.822Z,612.00
2022-10-04T12:18:46.828Z,608.00
2022-10-04T12:19:46.787Z,608.00
2022-10-04T12:20:46.792Z,616.00
2022-10-04T12:21:46.782Z,588.00
2022-10-04T12:22:46.759Z,596.00
2022-10-04T12:23:46.773Z,608.00
2022-10-04T12:24:46.723Z,616.00
2022-10-04T12:25:46.713Z,608.00
2022-10-04T12:26:47.170Z,600.00
2022-10-04T12:27:46.693Z,600.00
2022-10-04T12:28:46.690Z,600.00
2022-10-04T12:29:46.673Z,596.00
2022-10-04T12:30:46.645Z,604.00
2022-10-04T12:31:46.719Z,600.00
2022-10-04T12:32:46.663Z,608.00
2022-10-04T12:33:46.635Z,588.00
2022-10-04T12:34:46.630Z,584.00
2022-10-04T12:35:46.599Z,596.00
2022-10-04T12:36:47.216Z,596.00
2022-10-04T12:37:46.602Z,592.00
2022-10-04T12:38:46.566Z,588.00
2022-10-04T12:39:46.565Z,584.00
2022-10-04T12:40:46.556Z,588.00
2022-10-04T12:41:46.551Z,588.00
2022-10-04T12:42:46.534Z,584.00
2022-10-04T12:43:46.534Z,588.00
2022-10-04T12:44:46.514Z,596.00